Enders, Pennsylvania
Current Conditions -  °F | °C
As of 9:34 PM on Sunday 23 Nov 2014 (Local Time) from KMUI Reporting Station
Overcast Overcast  
Wind Chill: 44°   Ceiling: 2900
Heat Index: 46°   Visibility: 10mi
Dew Point: 32°   Wind: 5mph
Humidity: 57%   Direction: 50°NE
Pressure: 29.98"   Gusts: NA
Location:  40.4949°N, 76.8115°W
Report Text: KMUI 240234Z AUTO 05004KT 10SM BKN029 OVC037 08/00 A2998 RMK AO2 CIG 029V034 $
Loading
Personal Weather Stations






























Interactive Weather Map New forecast layout! Learn more

10-Day Weather Forecast

Advertisements
Track Severe Weather on mobile